sensor_id;sensor_type;location;lat;lon;timestamp;pressure;altitude;pressure_sealevel;temperature;humidity
58102;BME280;52034;51.926;6.320;2022-11-20T00:00:31;101319.13;;;-3.87;81.87
58102;BME280;52034;51.926;6.320;2022-11-20T00:01:31;101321.25;;;-3.72;83.04
58102;BME280;52034;51.926;6.320;2022-11-20T00:02:31;101331.97;;;-3.47;82.36
58102;BME280;52034;51.926;6.320;2022-11-20T00:03:32;101336.38;;;-3.36;81.93
58102;BME280;52034;51.926;6.320;2022-11-20T00:04:32;101328.59;;;-3.37;81.69
58102;BME280;52034;51.926;6.320;2022-11-20T00:05:33;101328.44;;;-3.39;81.48
58102;BME280;52034;51.926;6.320;2022-11-20T00:06:33;101339.06;;;-3.34;81.85
58102;BME280;52034;51.926;6.320;2022-11-20T00:07:34;101328.31;;;-3.40;81.93
58102;BME280;52034;51.926;6.320;2022-11-20T00:08:34;101321.50;;;-3.21;81.48
58102;BME280;52034;51.926;6.320;2022-11-20T00:09:35;101334.03;;;-3.13;80.81
58102;BME280;52034;51.926;6.320;2022-11-20T00:10:39;101343.22;;;-3.15;80.05
58102;BME280;52034;51.926;6.320;2022-11-20T00:11:39;101344.84;;;-3.26;79.75
58102;BME280;52034;51.926;6.320;2022-11-20T00:12:40;101355.56;;;-3.30;80.39
58102;BME280;52034;51.926;6.320;2022-11-20T00:13:40;101337.19;;;-3.26;81.10
58102;BME280;52034;51.926;6.320;2022-11-20T00:14:41;101328.28;;;-3.21;81.28
58102;BME280;52034;51.926;6.320;2022-11-20T00:15:41;101345.66;;;-3.07;81.07
58102;BME280;52034;51.926;6.320;2022-11-20T00:16:41;101334.09;;;-3.32;80.79
58102;BME280;52034;51.926;6.320;2022-11-20T00:17:42;101332.97;;;-3.55;79.97
58102;BME280;52034;51.926;6.320;2022-11-20T00:18:42;101326.75;;;-3.48;80.71
58102;BME280;52034;51.926;6.320;2022-11-20T00:19:43;101315.16;;;-3.45;80.56
58102;BME280;52034;51.926;6.320;2022-11-20T00:20:44;101326.66;;;-3.40;80.76
58102;BME280;52034;51.926;6.320;2022-11-20T00:21:44;101336.59;;;-3.43;80.79
58102;BME280;52034;51.926;6.320;2022-11-20T00:22:44;101331.47;;;-3.53;81.88
58102;BME280;52034;51.926;6.320;2022-11-20T00:23:45;101331.53;;;-3.32;81.68
58102;BME280;52034;51.926;6.320;2022-11-20T00:24:46;101318.38;;;-3.27;80.57
58102;BME280;52034;51.926;6.320;2022-11-20T00:25:46;101335.84;;;-3.42;79.67
58102;BME280;52034;51.926;6.320;2022-11-20T00:26:46;101323.88;;;-3.62;79.71
58102;BME280;52034;51.926;6.320;2022-11-20T00:27:47;101334.31;;;-3.69;80.45
58102;BME280;52034;51.926;6.320;2022-11-20T00:28:56;101317.84;;;-3.92;81.72
58102;BME280;52034;51.926;6.320;2022-11-20T00:29:56;101318.47;;;-3.94;83.38
58102;BME280;52034;51.926;6.320;2022-11-20T00:32:10;101322.09;;;-3.82;83.16
58102;BME280;52034;51.926;6.320;2022-11-20T00:33:10;101331.28;;;-3.84;82.47
58102;BME280;52034;51.926;6.320;2022-11-20T00:34:11;101340.50;;;-3.57;83.98
58102;BME280;52034;51.926;6.320;2022-11-20T00:35:11;101339.06;;;-3.63;84.11
58102;BME280;52034;51.926;6.320;2022-11-20T00:36:18;101327.06;;;-3.64;83.87
58102;BME280;52034;51.926;6.320;2022-11-20T00:37:18;101330.47;;;-3.64;84.06
58102;BME280;52034;51.926;6.320;2022-11-20T00:38:19;101333.22;;;-3.33;83.82
58102;BME280;52034;51.926;6.320;2022-11-20T00:39:19;101326.66;;;-3.40;82.62
58102;BME280;52034;51.926;6.320;2022-11-20T00:40:19;101333.41;;;-3.40;82.50
58102;BME280;52034;51.926;6.320;2022-11-20T00:41:20;101334.41;;;-3.48;81.64
58102;BME280;52034;51.926;6.320;2022-11-20T00:42:21;101326.44;;;-3.62;83.57
58102;BME280;52034;51.926;6.320;2022-11-20T00:43:21;101323.19;;;-3.70;82.91
58102;BME280;52034;51.926;6.320;2022-11-20T00:44:21;101323.06;;;-3.71;81.95
58102;BME280;52034;51.926;6.320;2022-11-20T00:45:22;101306.84;;;-3.91;82.59
58102;BME280;52034;51.926;6.320;2022-11-20T00:46:25;101308.66;;;-3.90;82.82
58102;BME280;52034;51.926;6.320;2022-11-20T00:47:25;101308.59;;;-4.00;82.60
58102;BME280;52034;51.926;6.320;2022-11-20T00:48:26;101318.97;;;-3.98;82.76
58102;BME280;52034;51.926;6.320;2022-11-20T00:49:27;101319.41;;;-4.03;82.87
58102;BME280;52034;51.926;6.320;2022-11-20T00:50:27;101311.44;;;-3.97;82.56
58102;BME280;52034;51.926;6.320;2022-11-20T00:51:27;101303.16;;;-3.94;82.34
58102;BME280;52034;51.926;6.320;2022-11-20T00:52:28;101305.75;;;-3.84;82.59
58102;BME280;52034;51.926;6.320;2022-11-20T00:53:28;101298.59;;;-3.88;82.50
58102;BME280;52034;51.926;6.320;2022-11-20T00:54:28;101316.50;;;-3.78;82.33
58102;BME280;52034;51.926;6.320;2022-11-20T00:55:29;101312.66;;;-3.83;83.05
58102;BME280;52034;51.926;6.320;2022-11-20T00:56:29;101305.16;;;-4.00;83.10
58102;BME280;52034;51.926;6.320;2022-11-20T00:57:29;101298.81;;;-4.14;82.53
58102;BME280;52034;51.926;6.320;2022-11-20T00:58:32;101306.13;;;-4.09;83.17
58102;BME280;52034;51.926;6.320;2022-11-20T00:59:33;101311.41;;;-3.78;83.54
58102;BME280;52034;51.926;6.320;2022-11-20T01:00:34;101307.34;;;-3.76;84.15
58102;BME280;52034;51.926;6.320;2022-11-20T01:01:35;101311.19;;;-3.71;84.26
58102;BME280;52034;51.926;6.320;2022-11-20T01:02:36;101302.06;;;-3.58;83.96
58102;BME280;52034;51.926;6.320;2022-11-20T01:03:39;101307.50;;;-3.64;83.47
58102;BME280;52034;51.926;6.320;2022-11-20T01:04:40;101298.53;;;-3.98;83.58
58102;BME280;52034;51.926;6.320;2022-11-20T01:05:41;101287.78;;;-4.05;83.52
58102;BME280;52034;51.926;6.320;2022-11-20T01:06:41;101305.41;;;-3.97;83.60
58102;BME280;52034;51.926;6.320;2022-11-20T01:07:41;101304.72;;;-3.86;82.92
58102;BME280;52034;51.926;6.320;2022-11-20T01:08:42;101303.00;;;-3.77;84.25
58102;BME280;52034;51.926;6.320;2022-11-20T01:09:43;101309.59;;;-3.60;83.54
58102;BME280;52034;51.926;6.320;2022-11-20T01:10:43;101311.03;;;-3.53;83.32
58102;BME280;52034;51.926;6.320;2022-11-20T01:11:44;101316.16;;;-3.72;83.38
58102;BME280;52034;51.926;6.320;2022-11-20T01:12:45;101317.38;;;-3.58;83.75
58102;BME280;52034;51.926;6.320;2022-11-20T01:14:08;101311.97;;;-3.72;83.16
58102;BME280;52034;51.926;6.320;2022-11-20T01:15:09;101318.66;;;-4.01;83.46
58102;BME280;52034;51.926;6.320;2022-11-20T01:16:15;101305.09;;;-3.92;84.70
58102;BME280;52034;51.926;6.320;2022-11-20T01:17:16;101312.13;;;-3.89;85.37
58102;BME280;52034;51.926;6.320;2022-11-20T01:18:16;101317.50;;;-3.86;85.44
58102;BME280;52034;51.926;6.320;2022-11-20T01:19:19;101301.22;;;-4.16;86.47
58102;BME280;52034;51.926;6.320;2022-11-20T01:20:20;101310.81;;;-4.13;86.42
58102;BME280;52034;51.926;6.320;2022-11-20T01:21:26;101320.66;;;-3.89;85.97
58102;BME280;52034;51.926;6.320;2022-11-20T01:22:26;101317.63;;;-3.84;85.44
58102;BME280;52034;51.926;6.320;2022-11-20T01:23:30;101308.69;;;-4.09;84.66
58102;BME280;52034;51.926;6.320;2022-11-20T01:24:30;101311.38;;;-4.26;84.31
58102;BME280;52034;51.926;6.320;2022-11-20T01:25:31;101307.28;;;-4.24;84.40
58102;BME280;52034;51.926;6.320;2022-11-20T01:26:35;101309.56;;;-4.27;85.37
58102;BME280;52034;51.926;6.320;2022-11-20T01:27:35;101307.75;;;-4.09;84.69
58102;BME280;52034;51.926;6.320;2022-11-20T01:28:36;101303.34;;;-4.01;83.81
58102;BME280;52034;51.926;6.320;2022-11-20T01:29:36;101307.78;;;-3.90;83.16
58102;BME280;52034;51.926;6.320;2022-11-20T01:30:37;101291.78;;;-3.98;82.91
58102;BME280;52034;51.926;6.320;2022-11-20T01:31:37;101287.16;;;-4.02;82.41
58102;BME280;52034;51.926;6.320;2022-11-20T01:32:37;101279.84;;;-4.08;82.86
58102;BME280;52034;51.926;6.320;2022-11-20T01:33:39;101302.81;;;-3.89;82.52
58102;BME280;52034;51.926;6.320;2022-11-20T01:34:39;101302.69;;;-3.80;81.76
58102;BME280;52034;51.926;6.320;2022-11-20T01:35:39;101282.69;;;-4.05;80.87
58102;BME280;52034;51.926;6.320;2022-11-20T01:36:41;101299.38;;;-3.89;82.31
58102;BME280;52034;51.926;6.320;2022-11-20T01:37:42;101299.81;;;-3.74;82.77
58102;BME280;52034;51.926;6.320;2022-11-20T01:38:43;101302.44;;;-3.83;83.41
58102;BME280;52034;51.926;6.320;2022-11-20T01:39:43;101300.94;;;-4.19;83.36
58102;BME280;52034;51.926;6.320;2022-11-20T01:40:43;101289.06;;;-4.38;83.28
58102;BME280;52034;51.926;6.320;2022-11-20T01:41:45;101302.94;;;-4.25;83.92
58102;BME280;52034;51.926;6.320;2022-11-20T01:43:18;101289.16;;;-4.27;84.79
58102;BME280;52034;51.926;6.320;2022-11-20T01:44:45;101297.44;;;-4.30;84.71
58102;BME280;52034;51.926;6.320;2022-11-20T01:46:04;101303.53;;;-4.47;83.94
58102;BME280;52034;51.926;6.320;2022-11-20T01:47:06;101297.22;;;-4.42;84.26
58102;BME280;52034;51.926;6.320;2022-11-20T01:48:08;101280.97;;;-4.14;85.01
58102;BME280;52034;51.926;6.320;2022-11-20T01:49:15;101296.44;;;-4.03;82.70
58102;BME280;52034;51.926;6.320;2022-11-20T01:50:23;101281.78;;;-4.24;82.87
58102;BME280;52034;51.926;6.320;2022-11-20T01:51:35;101298.81;;;-3.95;83.62
58102;BME280;52034;51.926;6.320;2022-11-20T01:53:03;101292.72;;;-3.87;82.47
58102;BME280;52034;51.926;6.320;2022-11-20T01:54:09;101281.22;;;-4.11;82.86
58102;BME280;52034;51.926;6.320;2022-11-20T01:55:19;101292.53;;;-3.99;83.40
58102;BME280;52034;51.926;6.320;2022-11-20T01:56:19;101288.34;;;-3.98;82.89
58102;BME280;52034;51.926;6.320;2022-11-20T01:57:21;101288.38;;;-3.88;82.90
58102;BME280;52034;51.926;6.320;2022-11-20T01:58:27;101287.06;;;-3.93;82.79
58102;BME280;52034;51.926;6.320;2022-11-20T01:59:29;101267.84;;;-4.09;83.08
58102;BME280;52034;51.926;6.320;2022-11-20T02:00:30;101268.41;;;-4.22;82.66
58102;BME280;52034;51.926;6.320;2022-11-20T02:01:31;101280.66;;;-4.17;82.60
58102;BME280;52034;51.926;6.320;2022-11-20T02:02:31;101287.31;;;-4.20;83.40
58102;BME280;52034;51.926;6.320;2022-11-20T02:03:32;101283.56;;;-4.23;82.76
58102;BME280;52034;51.926;6.320;2022-11-20T02:04:32;101275.16;;;-4.22;83.76
58102;BME280;52034;51.926;6.320;2022-11-20T02:05:53;101285.00;;;-3.97;83.75
58102;BME280;52034;51.926;6.320;2022-11-20T02:06:57;101277.84;;;-3.82;83.11
58102;BME280;52034;51.926;6.320;2022-11-20T02:07:59;101256.78;;;-3.99;83.51
58102;BME280;52034;51.926;6.320;2022-11-20T02:09:00;101279.56;;;-3.92;83.19
58102;BME280;52034;51.926;6.320;2022-11-20T02:10:01;101277.28;;;-3.89;82.88
58102;BME280;52034;51.926;6.320;2022-11-20T02:11:01;101258.03;;;-4.04;83.21
58102;BME280;52034;51.926;6.320;2022-11-20T02:12:03;101266.81;;;-4.11;83.59
58102;BME280;52034;51.926;6.320;2022-11-20T02:13:04;101278.25;;;-4.16;83.46
58102;BME280;52034;51.926;6.320;2022-11-20T02:14:23;101279.22;;;-4.24;83.68
58102;BME280;52034;51.926;6.320;2022-11-20T02:15:24;101279.31;;;-4.33;83.48
58102;BME280;52034;51.926;6.320;2022-11-20T02:16:27;101276.19;;;-4.39;84.24
58102;BME280;52034;51.926;6.320;2022-11-20T02:17:29;101275.97;;;-4.51;83.48
58102;BME280;52034;51.926;6.320;2022-11-20T02:18:31;101271.00;;;-4.68;83.80
58102;BME280;52034;51.926;6.320;2022-11-20T02:19:32;101277.56;;;-4.43;83.67
58102;BME280;52034;51.926;6.320;2022-11-20T02:20:32;101266.75;;;-4.40;83.14
58102;BME280;52034;51.926;6.320;2022-11-20T02:23:29;101276.34;;;-3.99;82.15
58102;BME280;52034;51.926;6.320;2022-11-20T02:24:31;101286.81;;;-3.96;81.65
58102;BME280;52034;51.926;6.320;2022-11-20T02:25:32;101281.97;;;-3.93;80.92
58102;BME280;52034;51.926;6.320;2022-11-20T02:26:39;101265.28;;;-4.47;81.23
58102;BME280;52034;51.926;6.320;2022-11-20T02:27:41;101267.75;;;-4.57;82.68
58102;BME280;52034;51.926;6.320;2022-11-20T02:28:41;101254.34;;;-4.65;82.20
58102;BME280;52034;51.926;6.320;2022-11-20T02:29:47;101245.91;;;-4.64;82.85
58102;BME280;52034;51.926;6.320;2022-11-20T02:30:48;101260.66;;;-4.32;81.90
58102;BME280;52034;51.926;6.320;2022-11-20T02:31:48;101249.53;;;-4.24;81.36
58102;BME280;52034;51.926;6.320;2022-11-20T02:32:49;101261.19;;;-4.17;80.18
58102;BME280;52034;51.926;6.320;2022-11-20T02:33:55;101258.56;;;-4.46;80.89
58102;BME280;52034;51.926;6.320;2022-11-20T02:34:55;101262.00;;;-4.46;80.22
58102;BME280;52034;51.926;6.320;2022-11-20T02:35:56;101263.72;;;-4.36;81.34
58102;BME280;52034;51.926;6.320;2022-11-20T02:36:57;101266.28;;;-4.17;81.65
58102;BME280;52034;51.926;6.320;2022-11-20T02:38:01;101243.16;;;-3.99;82.40
58102;BME280;52034;51.926;6.320;2022-11-20T02:39:03;101262.34;;;-3.84;81.08
58102;BME280;52034;51.926;6.320;2022-11-20T02:40:04;101260.34;;;-3.78;80.26
58102;BME280;52034;51.926;6.320;2022-11-20T02:41:04;101256.91;;;-3.78;79.93
58102;BME280;52034;51.926;6.320;2022-11-20T02:42:05;101239.53;;;-3.82;79.92
58102;BME280;52034;51.926;6.320;2022-11-20T02:43:06;101250.44;;;-3.94;80.40
58102;BME280;52034;51.926;6.320;2022-11-20T02:44:06;101263.06;;;-3.95;81.26
58102;BME280;52034;51.926;6.320;2022-11-20T02:45:07;101262.03;;;-3.97;80.88
58102;BME280;52034;51.926;6.320;2022-11-20T02:46:08;101266.56;;;-3.84;80.76
58102;BME280;52034;51.926;6.320;2022-11-20T02:47:08;101267.31;;;-3.86;80.58
58102;BME280;52034;51.926;6.320;2022-11-20T02:48:09;101259.41;;;-3.89;81.25
58102;BME280;52034;51.926;6.320;2022-11-20T02:49:09;101272.22;;;-3.78;80.83
58102;BME280;52034;51.926;6.320;2022-11-20T02:50:10;101265.22;;;-3.71;80.41
58102;BME280;52034;51.926;6.320;2022-11-20T02:51:10;101257.78;;;-3.78;80.25
58102;BME280;52034;51.926;6.320;2022-11-20T02:52:11;101258.78;;;-3.86;80.53
58102;BME280;52034;51.926;6.320;2022-11-20T02:53:11;101260.91;;;-3.91;80.44
58102;BME280;52034;51.926;6.320;2022-11-20T02:54:11;101260.28;;;-3.88;80.86
58102;BME280;52034;51.926;6.320;2022-11-20T02:55:12;101254.03;;;-3.92;80.92
58102;BME280;52034;51.926;6.320;2022-11-20T02:56:12;101257.41;;;-4.01;81.10
58102;BME280;52034;51.926;6.320;2022-11-20T02:57:12;101246.94;;;-4.05;80.93
58102;BME280;52034;51.926;6.320;2022-11-20T02:58:13;101266.03;;;-3.91;80.96
58102;BME280;52034;51.926;6.320;2022-11-20T02:59:13;101261.41;;;-3.95;80.98
58102;BME280;52034;51.926;6.320;2022-11-20T03:00:14;101260.66;;;-3.94;80.58
58102;BME280;52034;51.926;6.320;2022-11-20T03:01:14;101251.16;;;-4.62;82.47
58102;BME280;52034;51.926;6.320;2022-11-20T03:02:14;101262.81;;;-4.37;82.86
58102;BME280;52034;51.926;6.320;2022-11-20T03:03:15;101262.97;;;-4.35;81.95
58102;BME280;52034;51.926;6.320;2022-11-20T03:04:16;101251.72;;;-4.56;81.42
58102;BME280;52034;51.926;6.320;2022-11-20T03:05:16;101253.50;;;-4.36;81.27
58102;BME280;52034;51.926;6.320;2022-11-20T03:06:16;101255.91;;;-4.38;80.28
58102;BME280;52034;51.926;6.320;2022-11-20T03:07:17;101257.72;;;-4.37;81.02
58102;BME280;52034;51.926;6.320;2022-11-20T03:08:17;101254.25;;;-4.56;81.40
58102;BME280;52034;51.926;6.320;2022-11-20T03:09:17;101261.50;;;-4.61;80.84
58102;BME280;52034;51.926;6.320;2022-11-20T03:10:18;101249.16;;;-4.75;81.43
58102;BME280;52034;51.926;6.320;2022-11-20T03:11:18;101259.31;;;-4.66;81.80
58102;BME280;52034;51.926;6.320;2022-11-20T03:12:18;101259.31;;;-4.66;83.40
58102;BME280;52034;51.926;6.320;2022-11-20T03:13:19;101263.84;;;-4.54;83.34
58102;BME280;52034;51.926;6.320;2022-11-20T03:14:19;101253.41;;;-4.65;83.39
58102;BME280;52034;51.926;6.320;2022-11-20T03:15:20;101252.34;;;-4.40;83.12
58102;BME280;52034;51.926;6.320;2022-11-20T03:16:22;101254.34;;;-4.27;82.12
58102;BME280;52034;51.926;6.320;2022-11-20T03:17:22;101244.34;;;-4.15;81.38
58102;BME280;52034;51.926;6.320;2022-11-20T03:18:23;101255.50;;;-4.23;81.39
58102;BME280;52034;51.926;6.320;2022-11-20T03:19:23;101234.59;;;-4.57;81.18
58102;BME280;52034;51.926;6.320;2022-11-20T03:20:24;101231.81;;;-4.88;81.91
58102;BME280;52034;51.926;6.320;2022-11-20T03:21:24;101237.00;;;-4.97;81.47
58102;BME280;52034;51.926;6.320;2022-11-20T03:22:24;101247.31;;;-4.67;81.58
58102;BME280;52034;51.926;6.320;2022-11-20T03:23:25;101253.94;;;-4.50;81.48
58102;BME280;52034;51.926;6.320;2022-11-20T03:24:26;101251.72;;;-4.56;81.44
58102;BME280;52034;51.926;6.320;2022-11-20T03:25:26;101252.00;;;-4.34;81.41
58102;BME280;52034;51.926;6.320;2022-11-20T03:26:27;101260.63;;;-4.23;81.99
58102;BME280;52034;51.926;6.320;2022-11-20T03:27:32;101254.84;;;-4.12;80.11
58102;BME280;52034;51.926;6.320;2022-11-20T03:28:33;101238.06;;;-4.18;80.54
58102;BME280;52034;51.926;6.320;2022-11-20T03:29:35;101257.66;;;-4.09;81.36
58102;BME280;52034;51.926;6.320;2022-11-20T03:30:35;101248.91;;;-4.21;81.40
58102;BME280;52034;51.926;6.320;2022-11-20T03:31:37;101253.50;;;-4.36;82.91
58102;BME280;52034;51.926;6.320;2022-11-20T03:32:40;101234.00;;;-4.74;83.84
58102;BME280;52034;51.926;6.320;2022-11-20T03:33:41;101243.53;;;-4.43;83.21
58102;BME280;52034;51.926;6.320;2022-11-20T03:34:42;101244.91;;;-4.28;82.31
58102;BME280;52034;51.926;6.320;2022-11-20T03:35:42;101242.28;;;-4.19;82.54
58102;BME280;52034;51.926;6.320;2022-11-20T03:36:43;101244.00;;;-4.28;82.40
58102;BME280;52034;51.926;6.320;2022-11-20T03:37:43;101245.81;;;-4.46;82.63
58102;BME280;52034;51.926;6.320;2022-11-20T03:38:46;101242.00;;;-4.60;82.50
58102;BME280;52034;51.926;6.320;2022-11-20T03:39:47;101223.31;;;-4.70;82.65
58102;BME280;52034;51.926;6.320;2022-11-20T03:40:47;101226.22;;;-4.37;82.57
58102;BME280;52034;51.926;6.320;2022-11-20T03:41:48;101229.44;;;-4.29;81.33
58102;BME280;52034;51.926;6.320;2022-11-20T03:42:49;101223.72;;;-4.27;81.11
58102;BME280;52034;51.926;6.320;2022-11-20T03:43:51;101221.28;;;-4.35;81.08
58102;BME280;52034;51.926;6.320;2022-11-20T03:44:51;101221.53;;;-4.32;81.66
58102;BME280;52034;51.926;6.320;2022-11-20T03:45:52;101221.03;;;-4.28;81.55
58102;BME280;52034;51.926;6.320;2022-11-20T03:46:52;101215.06;;;-4.29;81.92
58102;BME280;52034;51.926;6.320;2022-11-20T03:47:52;101225.38;;;-4.27;81.97
58102;BME280;52034;51.926;6.320;2022-11-20T03:48:53;101213.63;;;-4.35;83.00
58102;BME280;52034;51.926;6.320;2022-11-20T03:49:53;101215.59;;;-4.42;82.91
58102;BME280;52034;51.926;6.320;2022-11-20T03:51:08;101213.66;;;-4.25;82.27
58102;BME280;52034;51.926;6.320;2022-11-20T03:52:09;101212.84;;;-4.15;81.78
58102;BME280;52034;51.926;6.320;2022-11-20T03:53:09;101208.09;;;-4.21;81.04
58102;BME280;52034;51.926;6.320;2022-11-20T03:54:09;101222.56;;;-4.30;80.70
58102;BME280;52034;51.926;6.320;2022-11-20T03:55:10;101222.28;;;-4.33;81.78
58102;BME280;52034;51.926;6.320;2022-11-20T03:56:11;101219.84;;;-4.32;82.59
58102;BME280;52034;51.926;6.320;2022-11-20T03:57:12;101226.69;;;-4.22;81.93
58102;BME280;52034;51.926;6.320;2022-11-20T03:58:12;101224.16;;;-4.22;81.29
58102;BME280;52034;51.926;6.320;2022-11-20T03:59:13;101222.22;;;-4.25;81.28
58102;BME280;52034;51.926;6.320;2022-11-20T04:00:14;101218.81;;;-4.15;81.29
58102;BME280;52034;51.926;6.320;2022-11-20T04:01:22;101220.84;;;-4.21;80.91
58102;BME280;52034;51.926;6.320;2022-11-20T04:02:23;101199.28;;;-4.44;80.72
58102;BME280;52034;51.926;6.320;2022-11-20T04:03:23;101221.09;;;-4.18;81.21
58102;BME280;52034;51.926;6.320;2022-11-20T04:04:23;101213.81;;;-4.24;80.90
58102;BME280;52034;51.926;6.320;2022-11-20T04:05:24;101221.84;;;-4.19;81.09
58102;BME280;52034;51.926;6.320;2022-11-20T04:06:29;101216.19;;;-4.25;80.92
58102;BME280;52034;51.926;6.320;2022-11-20T04:07:30;101211.09;;;-4.25;80.09
58102;BME280;52034;51.926;6.320;2022-11-20T04:08:31;101224.59;;;-4.07;80.54
58102;BME280;52034;51.926;6.320;2022-11-20T04:09:31;101220.06;;;-4.01;80.48
58102;BME280;52034;51.926;6.320;2022-11-20T04:10:31;101227.53;;;-4.13;80.65
58102;BME280;52034;51.926;6.320;2022-11-20T04:11:35;101226.06;;;-4.58;82.11
58102;BME280;52034;51.926;6.320;2022-11-20T04:12:35;101207.75;;;-4.92;82.97
58102;BME280;52034;51.926;6.320;2022-11-20T04:13:36;101223.78;;;-4.93;82.24
58102;BME280;52034;51.926;6.320;2022-11-20T04:14:36;101226.94;;;-5.23;82.53
58102;BME280;52034;51.926;6.320;2022-11-20T04:15:37;101221.56;;;-4.98;83.96
58102;BME280;52034;51.926;6.320;2022-11-20T04:16:37;101223.59;;;-4.66;83.00
58102;BME280;52034;51.926;6.320;2022-11-20T04:17:37;101233.16;;;-4.64;82.90
58102;BME280;52034;51.926;6.320;2022-11-20T04:18:38;101224.75;;;-4.63;82.63
58102;BME280;52034;51.926;6.320;2022-11-20T04:19:39;101210.16;;;-4.55;82.32
58102;BME280;52034;51.926;6.320;2022-11-20T04:20:39;101235.03;;;-4.33;82.12
58102;BME280;52034;51.926;6.320;2022-11-20T04:21:40;101225.88;;;-4.31;81.62
58102;BME280;52034;51.926;6.320;2022-11-20T04:22:40;101220.56;;;-4.24;81.24
58102;BME280;52034;51.926;6.320;2022-11-20T04:23:41;101212.94;;;-4.62;82.51
58102;BME280;52034;51.926;6.320;2022-11-20T04:24:41;101228.84;;;-4.65;82.61
58102;BME280;52034;51.926;6.320;2022-11-20T04:25:42;101220.50;;;-5.00;81.75
58102;BME280;52034;51.926;6.320;2022-11-20T04:26:42;101220.50;;;-5.00;82.07
58102;BME280;52034;51.926;6.320;2022-11-20T04:27:42;101207.66;;;-4.83;81.80
58102;BME280;52034;51.926;6.320;2022-11-20T04:28:43;101210.13;;;-4.93;81.44
58102;BME280;52034;51.926;6.320;2022-11-20T04:29:43;101221.88;;;-5.04;81.31
58102;BME280;52034;51.926;6.320;2022-11-20T04:30:44;101219.78;;;-4.80;81.58
58102;BME280;52034;51.926;6.320;2022-11-20T04:31:44;101211.66;;;-4.95;83.19
58102;BME280;52034;51.926;6.320;2022-11-20T04:32:44;101227.78;;;-4.86;84.29
58102;BME280;52034;51.926;6.320;2022-11-20T04:33:45;101207.19;;;-5.07;82.63
58102;BME280;52034;51.926;6.320;2022-11-20T04:34:46;101217.88;;;-5.11;82.60
58102;BME280;52034;51.926;6.320;2022-11-20T04:35:47;101221.56;;;-5.26;82.50
58102;BME280;52034;51.926;6.320;2022-11-20T04:36:47;101219.81;;;-5.08;84.12
58102;BME280;52034;51.926;6.320;2022-11-20T04:37:51;101202.59;;;-5.11;82.64
58102;BME280;52034;51.926;6.320;2022-11-20T04:38:56;101213.13;;;-4.97;83.23
58102;BME280;52034;51.926;6.320;2022-11-20T04:39:57;101210.47;;;-5.27;82.57
58102;BME280;52034;51.926;6.320;2022-11-20T04:41:02;101219.09;;;-5.16;83.26
58102;BME280;52034;51.926;6.320;2022-11-20T04:42:03;101196.09;;;-4.98;84.00
58102;BME280;52034;51.926;6.320;2022-11-20T04:43:22;101216.47;;;-4.98;82.74
58102;BME280;52034;51.926;6.320;2022-11-20T04:44:22;101196.88;;;-5.36;82.53
58102;BME280;52034;51.926;6.320;2022-11-20T04:45:23;101208.38;;;-5.31;82.49
58102;BME280;52034;51.926;6.320;2022-11-20T04:46:23;101212.75;;;-5.39;82.31
58102;BME280;52034;51.926;6.320;2022-11-20T04:47:24;101188.47;;;-5.35;82.86
58102;BME280;52034;51.926;6.320;2022-11-20T04:48:25;101207.63;;;-5.30;81.85
58102;BME280;52034;51.926;6.320;2022-11-20T04:49:26;101192.38;;;-5.39;82.27
58102;BME280;52034;51.926;6.320;2022-11-20T04:50:26;101200.97;;;-5.19;82.51
58102;BME280;52034;51.926;6.320;2022-11-20T04:51:27;101205.38;;;-4.99;82.17
58102;BME280;52034;51.926;6.320;2022-11-20T04:52:27;101209.00;;;-5.06;81.97
58102;BME280;52034;51.926;6.320;2022-11-20T04:53:27;101207.88;;;-5.18;82.94
58102;BME280;52034;51.926;6.320;2022-11-20T04:54:28;101206.09;;;-5.19;83.58
58102;BME280;52034;51.926;6.320;2022-11-20T04:55:28;101207.16;;;-5.26;82.20
58102;BME280;52034;51.926;6.320;2022-11-20T04:56:28;101187.28;;;-5.39;83.13
58102;BME280;52034;51.926;6.320;2022-11-20T04:57:29;101201.13;;;-5.17;84.09
58102;BME280;52034;51.926;6.320;2022-11-20T04:58:29;101190.38;;;-5.24;83.47
58102;BME280;52034;51.926;6.320;2022-11-20T04:59:30;101194.94;;;-5.11;83.19
58102;BME280;52034;51.926;6.320;2022-11-20T05:00:30;101190.66;;;-4.93;83.56
58102;BME280;52034;51.926;6.320;2022-11-20T05:01:30;101179.28;;;-4.77;82.80
58102;BME280;52034;51.926;6.320;2022-11-20T05:02:31;101200.66;;;-4.66;82.55
58102;BME280;52034;51.926;6.320;2022-11-20T05:03:32;101188.59;;;-4.78;81.98
58102;BME280;52034;51.926;6.320;2022-11-20T05:04:32;101195.19;;;-4.80;82.33
58102;BME280;52034;51.926;6.320;2022-11-20T05:05:35;101199.84;;;-4.76;82.31
58102;BME280;52034;51.926;6.320;2022-11-20T05:06:36;101182.75;;;-4.77;81.62
58102;BME280;52034;51.926;6.320;2022-11-20T05:07:36;101185.31;;;-5.05;81.08
58102;BME280;52034;51.926;6.320;2022-11-20T05:08:36;101203.03;;;-5.06;81.13
58102;BME280;52034;51.926;6.320;2022-11-20T05:09:37;101191.06;;;-5.16;82.31
58102;BME280;52034;51.926;6.320;2022-11-20T05:10:38;101201.09;;;-5.09;81.81
58102;BME280;52034;51.926;6.320;2022-11-20T05:11:38;101189.59;;;-5.23;81.69
58102;BME280;52034;51.926;6.320;2022-11-20T05:12:38;101184.59;;;-5.31;82.79
58102;BME280;52034;51.926;6.320;2022-11-20T05:13:39;101193.69;;;-5.25;82.97
58102;BME280;52034;51.926;6.320;2022-11-20T05:14:40;101188.22;;;-5.47;82.84
58102;BME280;52034;51.926;6.320;2022-11-20T05:15:40;101192.31;;;-5.49;83.46
58102;BME280;52034;51.926;6.320;2022-11-20T05:16:40;101195.16;;;-5.18;83.17
58102;BME280;52034;51.926;6.320;2022-11-20T05:17:41;101183.03;;;-5.21;82.52
58102;BME280;52034;51.926;6.320;2022-11-20T05:18:41;101198.25;;;-5.40;82.08
58102;BME280;52034;51.926;6.320;2022-11-20T05:19:42;101195.47;;;-5.51;83.43
58102;BME280;52034;51.926;6.320;2022-11-20T05:20:42;101209.56;;;-5.64;82.90
58102;BME280;52034;51.926;6.320;2022-11-20T05:21:43;101197.47;;;-5.75;83.66
58102;BME280;52034;51.926;6.320;2022-11-20T05:22:43;101209.69;;;-5.54;84.13
58102;BME280;52034;51.926;6.320;2022-11-20T05:23:44;101201.44;;;-5.51;83.87
58102;BME280;52034;51.926;6.320;2022-11-20T05:24:44;101205.28;;;-5.37;84.20
58102;BME280;52034;51.926;6.320;2022-11-20T05:25:45;101194.06;;;-5.48;83.27